Time;durP1;ratioP1;P1;durP2;ratioP2;P2;SDS_P1;SDS_P2;PMS_P1;PMS_P2;Temp;Humidity;BMP_temperature;BMP_pressure;BME280_temperature;BME280_humidity;BME280_pressure;Samples;Min_cycle;Max_cycle;Signal;HPM_P1;HPM_P2
2022/01/02 00:02:12;;;;;;;57.25;29.35;;;;;;;-144.47;100.00;61586.06;5055697;28;20037;-83
2022/01/02 00:04:50;;;;;;;58.58;28.00;;;;;;;-144.47;100.00;61586.06;5051859;28;20072;-84
2022/01/02 00:07:17;;;;;;;68.45;30.20;;;;;;;-144.47;100.00;61586.06;5050822;28;20047;-85
2022/01/02 00:09:45;;;;;;;81.70;27.58;;;;;;;-144.47;100.00;61586.06;5052038;28;20048;-84
2022/01/02 00:12:14;;;;;;;100.90;30.83;;;;;;;-144.47;100.00;61586.06;5050938;28;20053;-83
2022/01/02 00:14:44;;;;;;;57.80;28.40;;;;;;;-144.47;100.00;61586.06;5041840;28;20040;-85
2022/01/02 00:17:10;;;;;;;41.53;29.13;;;;;;;-144.47;100.00;61586.06;5032332;28;20041;-85
2022/01/02 00:19:45;;;;;;;73.28;30.60;;;;;;;-144.47;100.00;61586.06;5032934;28;20033;-85
2022/01/02 00:22:15;;;;;;;111.63;30.88;;;;;;;-144.47;100.00;61586.06;5025169;28;20175;-85
2022/01/02 00:24:42;;;;;;;92.53;30.02;;;;;;;-144.47;100.00;61586.06;5032807;28;20025;-85
2022/01/02 00:27:10;;;;;;;91.45;32.83;;;;;;;-144.47;100.00;61586.06;5032762;28;20043;-85
2022/01/02 00:29:38;;;;;;;80.70;32.10;;;;;;;-144.47;100.00;61586.06;5020166;28;20029;-84
2022/01/02 00:32:09;;;;;;;68.45;33.75;;;;;;;-144.47;100.00;61586.06;5027594;28;20378;-85
2022/01/02 00:34:35;;;;;;;;;;;;;;;-144.47;100.00;61586.06;5007580;28;20526;-85
2022/01/02 00:37:00;;;;;;;101.45;32.38;;;;;;;-144.47;100.00;61586.06;5032023;28;19995;-85
2022/01/02 00:39:26;;;;;;;117.72;35.83;;;;;;;-144.47;100.00;61586.06;5032417;28;20064;-85
2022/01/02 00:41:55;;;;;;;59.30;35.33;;;;;;;-144.47;100.00;61586.06;5014956;28;20029;-85
2022/01/02 00:44:42;;;;;;;82.07;37.85;;;;;;;-144.47;100.00;61586.06;5014770;28;20064;-86
2022/01/02 00:47:26;;;;;;;108.53;36.65;;;;;;;-144.47;100.00;61586.06;5032323;28;20373;-85
2022/01/02 00:50:14;;;;;;;73.30;36.30;;;;;;;-144.47;100.00;61586.06;5034504;28;20071;-85
2022/01/02 00:52:44;;;;;;;127.32;36.83;;;;;;;-144.47;100.00;61586.06;5005452;28;20113;-85
2022/01/02 00:55:13;;;;;;;98.30;34.90;;;;;;;-144.47;100.00;61586.06;5010376;28;20095;-85
2022/01/02 00:57:42;;;;;;;100.68;36.17;;;;;;;-144.47;100.00;61586.06;5009095;28;20025;-85
2022/01/02 01:00:16;;;;;;;85.13;33.58;;;;;;;-144.47;100.00;61586.06;5041755;28;20029;-85
2022/01/02 01:02:48;;;;;;;82.28;35.55;;;;;;;-144.47;100.00;61586.06;5033468;28;20033;-85
2022/01/02 01:05:25;;;;;;;81.95;34.17;;;;;;;-144.47;100.00;61586.06;5017867;28;20134;-84
2022/01/02 01:07:54;;;;;;;75.32;34.47;;;;;;;-144.47;100.00;61586.06;5033993;28;20037;-86
2022/01/02 01:10:22;;;;;;;92.63;35.83;;;;;;;-144.47;100.00;61586.06;5034138;28;20033;-85
2022/01/02 01:12:54;;;;;;;98.88;38.55;;;;;;;-144.47;100.00;61586.06;5033889;28;20045;-86
2022/01/02 01:15:22;;;;;;;74.18;38.60;;;;;;;-144.47;100.00;61586.06;5016572;28;20143;-85
2022/01/02 01:17:49;;;;;;;79.70;40.88;;;;;;;-144.47;100.00;61586.06;5016635;28;20413;-85
2022/01/02 01:20:14;;;;;;;95.18;43.08;;;;;;;-144.47;100.00;61586.06;5034777;28;20484;-85
2022/01/02 01:22:42;;;;;;;117.50;40.88;;;;;;;-144.47;100.00;61586.06;5017160;28;20116;-85
2022/01/02 01:25:15;;;;;;;103.68;42.67;;;;;;;-144.47;100.00;61586.06;5016898;28;20087;-86
2022/01/02 01:27:53;;;;;;;105.93;41.45;;;;;;;-144.47;100.00;61586.06;5016766;28;20029;-86
2022/01/02 01:30:22;;;;;;;80.60;40.13;;;;;;;-144.47;100.00;61586.06;5014693;28;20056;-84
2022/01/02 01:32:49;;;;;;;97.68;40.30;;;;;;;-144.47;100.00;61586.06;5035636;28;20033;-86
2022/01/02 01:35:15;;;;;;;106.53;39.63;;;;;;;-144.47;100.00;61586.06;5034313;28;20039;-86
2022/01/02 01:37:41;;;;;;;95.28;39.28;;;;;;;-144.47;100.00;61586.06;5032848;28;20596;-86
2022/01/02 01:40:10;;;;;;;105.47;39.38;;;;;;;-144.47;100.00;61586.06;5033271;28;20465;-86
2022/01/02 01:47:34;;;;;;;87.50;38.00;;;;;;;-144.47;100.00;61586.06;5032747;28;20045;-84
2022/01/02 01:49:59;;;;;;;98.63;38.05;;;;;;;-144.47;100.00;61586.06;5015263;28;20033;-86
2022/01/02 01:52:25;;;;;;;80.25;37.88;;;;;;;-144.47;100.00;61586.06;5013377;28;20071;-86
2022/01/02 01:54:51;;;;;;;82.93;36.88;;;;;;;-144.47;100.00;61586.06;5026641;28;20068;-85
2022/01/02 01:57:16;;;;;;;82.35;36.47;;;;;;;-144.47;100.00;61586.06;5013999;28;20029;-86
2022/01/02 01:59:42;;;;;;;96.10;36.70;;;;;;;-144.47;100.00;61586.06;5016049;28;20175;-86
2022/01/02 02:02:09;;;;;;;89.85;35.50;;;;;;;-144.47;100.00;61586.06;5016802;28;20120;-86
2022/01/02 02:04:34;;;;;;;92.80;38.05;;;;;;;-144.47;100.00;61586.06;5035556;28;20493;-86
2022/01/02 02:07:00;;;;;;;87.10;34.75;;;;;;;-144.47;100.00;61586.06;5017382;28;20038;-86
2022/01/02 02:09:32;;;;;;;114.25;39.38;;;;;;;-144.47;100.00;61586.06;5035538;28;20032;-86
2022/01/02 02:12:00;;;;;;;68.45;36.67;;;;;;;-144.47;100.00;61586.06;5025519;28;20494;-86
2022/01/02 02:14:26;;;;;;;78.65;37.17;;;;;;;-144.47;100.00;61586.06;5017954;28;20053;-86
2022/01/02 02:16:52;;;;;;;86.35;38.63;;;;;;;-144.47;100.00;61586.06;5034616;28;20064;-86
2022/01/02 02:19:18;;;;;;;101.20;37.95;;;;;;;-144.47;100.00;61586.06;5001694;28;20049;-86
2022/01/02 02:21:43;;;;;;;101.07;38.17;;;;;;;-144.47;100.00;61586.06;5017751;28;20121;-86
2022/01/02 02:24:09;;;;;;;89.53;37.58;;;;;;;-144.47;100.00;61586.06;5017783;28;20113;-85
2022/01/02 02:26:38;;;;;;;92.18;38.28;;;;;;;-144.47;100.00;61586.06;5018839;28;20410;-86
2022/01/02 02:29:05;;;;;;;118.25;39.97;;;;;;;-144.47;100.00;61586.06;5027858;28;20029;-86
2022/01/02 02:31:31;;;;;;;115.78;41.38;;;;;;;-144.47;100.00;61586.06;5039757;28;20040;-85
2022/01/02 02:33:56;;;;;;;61.33;36.30;;;;;;;-144.47;100.00;61586.06;5054380;28;20044;-84
2022/01/02 02:36:22;;;;;;;70.50;39.38;;;;;;;-144.47;100.00;61586.06;5043288;28;20112;-84
2022/01/02 02:38:48;;;;;;;77.55;41.15;;;;;;;-144.47;100.00;61586.06;5033667;28;20109;-83
2022/01/02 02:41:14;;;;;;;66.30;39.85;;;;;;;-144.47;100.00;61586.06;5047537;28;20112;-84
2022/01/02 02:43:48;;;;;;;65.10;42.13;;;;;;;-144.47;100.00;61586.06;5019150;28;20025;-86
2022/01/02 02:49:09;;;;;;;82.03;41.33;;;;;;;-144.47;100.00;61586.06;5029326;28;20099;-84
2022/01/02 02:52:04;;;;;;;84.10;40.78;;;;;;;-144.47;100.00;61586.06;5013360;28;20029;-85
2022/01/02 02:54:35;;;;;;;68.00;40.60;;;;;;;-144.47;100.00;61586.06;5014082;28;20040;-84
2022/01/02 02:57:04;;;;;;;86.18;40.85;;;;;;;-144.47;100.00;61586.06;5016668;28;20363;-84
2022/01/02 02:59:35;;;;;;;83.72;40.47;;;;;;;-144.47;100.00;61586.06;5017154;28;20017;-84
2022/01/02 03:02:02;;;;;;;;;;;;;;;-144.47;100.00;61586.06;5018687;28;20036;-84
2022/01/02 03:04:32;;;;;;;224.93;43.35;;;;;;;-144.47;100.00;61586.06;5017561;28;20288;-85
2022/01/02 03:06:57;;;;;;;68.10;40.97;;;;;;;-144.47;100.00;61586.06;5034005;28;20167;-85
2022/01/02 03:11:55;;;;;;;67.93;40.15;;;;;;;-144.47;100.00;61586.06;5015995;28;20048;-84
2022/01/02 03:14:21;;;;;;;77.05;42.20;;;;;;;-144.47;100.00;61586.06;5034610;28;20034;-85
2022/01/02 03:16:47;;;;;;;82.28;41.72;;;;;;;-144.47;100.00;61586.06;5016211;28;20093;-84
2022/01/02 03:19:12;;;;;;;96.43;40.75;;;;;;;-144.47;100.00;61586.06;5033806;28;20021;-84
2022/01/02 03:21:38;;;;;;;80.75;40.97;;;;;;;-144.47;100.00;61586.06;5016214;28;20037;-84
2022/01/02 03:24:04;;;;;;;94.40;43.70;;;;;;;-144.47;100.00;61586.06;5033543;28;20386;-85
2022/01/02 03:26:30;;;;;;;82.47;43.22;;;;;;;-144.47;100.00;61586.06;5032505;28;20108;-84
2022/01/02 03:28:56;;;;;;;80.45;43.13;;;;;;;-144.47;100.00;61586.06;5015430;28;20132;-85
2022/01/02 03:31:21;;;;;;;88.30;44.00;;;;;;;-144.47;100.00;61586.06;5016174;28;20124;-85
2022/01/02 03:33:48;;;;;;;86.57;42.42;;;;;;;-144.47;100.00;61586.06;5015613;28;20057;-85
2022/01/02 03:36:13;;;;;;;90.57;42.90;;;;;;;-144.47;100.00;61586.06;5016297;28;20512;-84
2022/01/02 03:38:39;;;;;;;72.57;40.00;;;;;;;-144.47;100.00;61586.06;5034659;28;20052;-84
2022/01/02 03:41:04;;;;;;;75.90;41.00;;;;;;;-144.47;100.00;61586.06;5033982;28;20034;-84
2022/01/02 03:43:30;;;;;;;69.97;39.80;;;;;;;-144.47;100.00;61586.06;5017456;28;20052;-85
2022/01/02 03:45:57;;;;;;;68.50;42.05;;;;;;;-144.47;100.00;61586.06;5018181;28;20033;-84
2022/01/02 03:48:23;;;;;;;68.25;41.33;;;;;;;-144.47;100.00;61586.06;5021732;28;20055;-85
2022/01/02 03:50:49;;;;;;;81.57;43.72;;;;;;;-144.47;100.00;61586.06;5028231;28;20099;-84
2022/01/02 03:53:16;;;;;;;78.90;42.97;;;;;;;-144.47;100.00;61586.06;5039460;28;20099;-84
2022/01/02 03:55:41;;;;;;;68.72;40.70;;;;;;;-144.47;100.00;61586.06;5039366;28;20021;-84
2022/01/02 03:58:07;;;;;;;73.93;42.70;;;;;;;-144.47;100.00;61586.06;5040486;28;20021;-85
2022/01/02 04:00:32;;;;;;;80.55;41.22;;;;;;;-144.47;100.00;61586.06;5039510;28;20036;-84
2022/01/02 04:02:58;;;;;;;64.82;41.28;;;;;;;-144.47;100.00;61586.06;5047211;28;20033;-85
2022/01/02 04:05:23;;;;;;;72.50;40.88;;;;;;;-144.47;100.00;61586.06;5049412;28;20047;-85
2022/01/02 04:07:49;;;;;;;74.60;40.65;;;;;;;-144.47;100.00;61586.06;5027868;28;20037;-83
2022/01/02 04:10:18;;;;;;;72.78;41.75;;;;;;;-144.47;100.00;61586.06;5019468;28;20038;-84
2022/01/02 04:12:44;;;;;;;75.03;44.30;;;;;;;-144.47;100.00;61586.06;5036106;28;20091;-82
2022/01/02 04:15:11;;;;;;;74.45;45.28;;;;;;;-144.47;100.00;61586.06;5035700;28;20029;-84
2022/01/02 04:17:38;;;;;;;69.25;44.03;;;;;;;-144.47;100.00;61586.06;5017548;28;20029;-85
2022/01/02 04:20:06;;;;;;;69.10;41.92;;;;;;;-144.47;100.00;61586.06;5027181;28;20504;-85
2022/01/02 04:22:32;;;;;;;82.13;42.30;;;;;;;-144.47;100.00;61586.06;5035811;28;20034;-85
2022/01/02 04:24:58;;;;;;;74.45;40.15;;;;;;;-144.47;100.00;61586.06;5016800;28;20068;-84
2022/01/02 04:27:25;;;;;;;66.32;40.67;;;;;;;-144.47;100.00;61586.06;5033003;28;20036;-85
2022/01/02 04:29:51;;;;;;;68.35;40.63;;;;;;;-144.47;100.00;61586.06;5016557;28;20033;-85
2022/01/02 04:32:18;;;;;;;57.00;38.65;;;;;;;-144.47;100.00;61586.06;5016170;28;20026;-83
2022/01/02 04:34:44;;;;;;;60.65;38.67;;;;;;;-144.47;100.00;61586.06;5016915;28;20025;-84
2022/01/02 04:37:11;;;;;;;57.60;39.22;;;;;;;-144.47;100.00;61586.06;5017084;28;20041;-84
2022/01/02 04:39:38;;;;;;;61.78;41.50;;;;;;;-144.47;100.00;61586.06;5016275;28;20022;-85
2022/01/02 04:42:04;;;;;;;62.42;40.88;;;;;;;-144.47;100.00;61586.06;5033692;28;20034;-85
2022/01/02 04:44:30;;;;;;;62.67;40.67;;;;;;;-144.47;100.00;61586.06;5016617;28;20033;-85
2022/01/02 04:46:56;;;;;;;67.55;42.38;;;;;;;-144.47;100.00;61586.06;5016165;28;20037;-84
2022/01/02 04:49:22;;;;;;;56.70;42.28;;;;;;;-144.47;100.00;61586.06;5016415;28;20065;-85
2022/01/02 04:51:47;;;;;;;54.85;40.70;;;;;;;-144.47;100.00;61586.06;5016487;28;20124;-85
2022/01/02 04:54:14;;;;;;;57.78;39.88;;;;;;;-144.47;100.00;61586.06;5016714;28;20123;-84
2022/01/02 04:56:40;;;;;;;57.15;37.85;;;;;;;-144.47;100.00;61586.06;5000826;28;20365;-84
2022/01/02 04:59:06;;;;;;;56.67;39.72;;;;;;;-144.47;100.00;61586.06;5016834;28;20030;-85
2022/01/02 05:01:32;;;;;;;61.75;37.65;;;;;;;-144.47;100.00;61586.06;5026736;28;20128;-85
2022/01/02 05:03:59;;;;;;;65.75;36.28;;;;;;;-144.47;100.00;61586.06;5009666;28;20041;-84
2022/01/02 05:06:24;;;;;;;51.22;34.70;;;;;;;-144.47;100.00;61586.06;5018663;28;20034;-84
2022/01/02 05:08:50;;;;;;;57.25;38.13;;;;;;;-144.47;100.00;61586.06;5036151;28;20030;-84
2022/01/02 05:11:16;;;;;;;64.60;37.38;;;;;;;-144.47;100.00;61586.06;5036642;28;20057;-84
2022/01/02 05:13:42;;;;;;;57.60;37.78;;;;;;;-144.47;100.00;61586.06;5020665;28;20049;-84
2022/01/02 05:16:08;;;;;;;55.47;37.38;;;;;;;-144.47;100.00;61586.06;5023503;28;20037;-84
2022/01/02 05:18:33;;;;;;;53.60;37.70;;;;;;;-144.47;100.00;61586.06;5044551;28;20029;-84
2022/01/02 05:20:59;;;;;;;58.50;37.95;;;;;;;-144.47;100.00;61586.06;5024315;28;20029;-84
2022/01/02 05:23:25;;;;;;;56.08;37.00;;;;;;;-144.47;100.00;61586.06;5026351;28;20158;-84
2022/01/02 05:25:52;;;;;;;57.40;37.42;;;;;;;-144.47;100.00;61586.06;5045741;28;20098;-84
2022/01/02 05:28:18;;;;;;;58.67;36.75;;;;;;;-144.47;100.00;61586.06;5045061;28;20044;-83
2022/01/02 05:30:44;;;;;;;57.47;37.25;;;;;;;-144.47;100.00;61586.06;5026789;28;20033;-82
2022/01/02 05:33:11;;;;;;;56.00;39.60;;;;;;;-144.47;100.00;61586.06;5036916;28;20485;-84
2022/01/02 05:35:37;;;;;;;56.20;38.65;;;;;;;-144.47;100.00;61586.06;5039354;28;20025;-84
2022/01/02 05:38:03;;;;;;;66.68;39.25;;;;;;;-144.47;100.00;61586.06;5024912;28;20093;-84
2022/01/02 05:40:32;;;;;;;80.97;38.85;;;;;;;-144.47;100.00;61586.06;5032005;28;20056;-84
2022/01/02 05:42:59;;;;;;;58.17;38.55;;;;;;;-144.47;100.00;61586.06;5032363;28;20066;-84
2022/01/02 05:45:25;;;;;;;82.22;38.35;;;;;;;-144.47;100.00;61586.06;5032423;28;20052;-84
2022/01/02 05:47:50;;;;;;;62.38;36.15;;;;;;;-144.47;100.00;61586.06;5032031;28;20040;-84
2022/01/02 05:50:16;;;;;;;61.03;36.30;;;;;;;-144.47;100.00;61586.06;5030186;28;20017;-85
2022/01/02 05:52:42;;;;;;;57.90;36.78;;;;;;;-144.47;100.00;61586.06;5030404;28;20064;-85
2022/01/02 05:55:08;;;;;;;56.78;35.88;;;;;;;-144.47;100.00;61586.06;5030560;28;20124;-84
2022/01/02 05:57:35;;;;;;;59.42;34.08;;;;;;;-144.47;100.00;61586.06;5030905;28;20064;-84
2022/01/02 06:00:07;;;;;;;49.80;35.53;;;;;;;-144.47;100.00;61586.06;5044146;28;20338;-84
2022/01/02 06:02:39;;;;;;;57.83;39.75;;;;;;;-144.47;100.00;61586.06;5043923;28;20401;-85
2022/01/02 06:05:06;;;;;;;52.47;37.35;;;;;;;-144.47;100.00;61586.06;5001242;28;20073;-85
2022/01/02 06:07:34;;;;;;;76.35;36.75;;;;;;;-144.47;100.00;61586.06;5016640;28;20021;-85
2022/01/02 06:10:00;;;;;;;79.50;35.00;;;;;;;-144.47;100.00;61586.06;5016529;28;20026;-84
2022/01/02 06:12:26;;;;;;;107.28;35.88;;;;;;;-144.47;100.00;61586.06;5019019;28;20053;-85
2022/01/02 06:14:52;;;;;;;57.05;34.38;;;;;;;-144.47;100.00;61586.06;5028884;28;20033;-83
2022/01/02 06:17:18;;;;;;;48.78;34.53;;;;;;;-144.47;100.00;61586.06;5035910;28;20033;-83
2022/01/02 06:19:44;;;;;;;59.17;33.17;;;;;;;-144.47;100.00;61586.06;5034547;28;20082;-84
2022/01/02 06:22:10;;;;;;;49.10;34.00;;;;;;;-144.47;100.00;61586.06;5041889;28;20140;-85
2022/01/02 06:24:35;;;;;;;50.30;31.88;;;;;;;-144.47;100.00;61586.06;5036907;28;20462;-85
2022/01/02 06:27:01;;;;;;;47.55;32.70;;;;;;;-144.47;100.00;61586.06;5035757;28;20061;-85
2022/01/02 06:29:27;;;;;;;56.20;30.98;;;;;;;-144.47;100.00;61586.06;5035328;28;20087;-84
2022/01/02 06:31:53;;;;;;;44.85;30.92;;;;;;;-144.47;100.00;61586.06;5001710;28;20095;-85
2022/01/02 06:34:19;;;;;;;41.90;29.08;;;;;;;-144.47;100.00;61586.06;5015035;28;20397;-84
2022/01/02 06:36:45;;;;;;;41.13;28.02;;;;;;;-144.47;100.00;61586.06;5036408;28;20052;-85
2022/01/02 06:39:10;;;;;;;38.03;28.92;;;;;;;-144.47;100.00;61586.06;5018976;28;20505;-84
2022/01/02 06:41:36;;;;;;;43.90;30.75;;;;;;;-144.47;100.00;61586.06;5017805;28;20060;-85
2022/01/02 06:44:02;;;;;;;52.13;31.85;;;;;;;-144.47;100.00;61586.06;5040166;28;20026;-85
2022/01/02 06:46:28;;;;;;;52.67;32.08;;;;;;;-144.47;100.00;61586.06;5034594;28;20025;-83
2022/01/02 06:48:54;;;;;;;41.50;31.60;;;;;;;-144.47;100.00;61586.06;5034237;28;20029;-84
2022/01/02 06:51:20;;;;;;;47.75;31.45;;;;;;;-144.47;100.00;61586.06;5025418;28;20041;-83
2022/01/02 06:53:46;;;;;;;41.22;31.13;;;;;;;-144.47;100.00;61586.06;5023892;28;20032;-85
2022/01/02 06:56:12;;;;;;;64.68;32.35;;;;;;;-144.47;100.00;61586.06;5041530;28;20049;-84
2022/01/02 06:58:39;;;;;;;46.63;31.23;;;;;;;-144.47;100.00;61586.06;5024001;28;20112;-85
2022/01/02 07:01:06;;;;;;;42.47;31.13;;;;;;;-144.47;100.00;61586.06;5002546;28;20060;-83
2022/01/02 07:03:32;;;;;;;43.17;30.83;;;;;;;-144.47;100.00;61586.06;5024093;28;20485;-86
2022/01/02 07:06:00;;;;;;;64.28;30.60;;;;;;;-144.47;100.00;61586.06;5023349;28;20030;-85
2022/01/02 07:08:28;;;;;;;65.15;30.58;;;;;;;-144.47;100.00;61586.06;5033556;28;20046;-85
2022/01/02 07:10:55;;;;;;;48.08;28.65;;;;;;;-144.47;100.00;61586.06;5008395;28;20030;-84
2022/01/02 07:13:20;;;;;;;45.33;31.77;;;;;;;-144.47;100.00;61586.06;5023233;28;20050;-84
2022/01/02 07:15:48;;;;;;;51.50;31.90;;;;;;;-144.47;100.00;61586.06;5010491;28;20034;-82
2022/01/02 07:18:13;;;;;;;45.63;34.17;;;;;;;-144.47;100.00;61586.06;5007845;28;20084;-84
2022/01/02 07:20:39;;;;;;;47.17;33.78;;;;;;;-144.47;100.00;61586.06;5011791;28;20045;-84
2022/01/02 07:23:04;;;;;;;46.72;34.88;;;;;;;-144.47;100.00;61586.06;5021653;28;20322;-83
2022/01/02 07:25:30;;;;;;;62.55;34.38;;;;;;;-144.47;100.00;61586.06;5022546;28;20033;-85
2022/01/02 07:27:55;;;;;;;61.38;32.95;;;;;;;-144.47;100.00;61586.06;5025960;28;20033;-84
2022/01/02 07:30:21;;;;;;;49.10;34.15;;;;;;;-144.47;100.00;61586.06;5007117;28;20034;-84
2022/01/02 07:32:46;;;;;;;53.78;34.05;;;;;;;-144.47;100.00;61586.06;5024550;28;20041;-85
2022/01/02 07:35:12;;;;;;;87.18;34.83;;;;;;;-144.47;100.00;61586.06;5031920;28;20076;-84
2022/01/02 07:37:37;;;;;;;48.10;35.30;;;;;;;-144.47;100.00;61586.06;5019046;28;20041;-84
2022/01/02 07:40:04;;;;;;;48.17;35.80;;;;;;;-144.47;100.00;61586.06;5018415;28;20030;-84
2022/01/02 07:42:29;;;;;;;53.88;36.25;;;;;;;-144.47;100.00;61586.06;5036161;28;20063;-84
2022/01/02 07:45:02;;;;;;;46.22;33.75;;;;;;;-144.47;100.00;61586.06;5019276;28;20116;-84
2022/01/02 07:47:28;;;;;;;58.05;33.75;;;;;;;-144.47;100.00;61586.06;5046025;28;20048;-85
2022/01/02 07:49:53;;;;;;;48.38;33.45;;;;;;;-144.47;100.00;61586.06;5056589;28;20029;-85
2022/01/02 07:52:19;;;;;;;54.20;32.72;;;;;;;-144.47;100.00;61586.06;5056283;28;20017;-84
2022/01/02 07:54:44;;;;;;;55.33;31.30;;;;;;;-144.47;100.00;61586.06;5039311;28;20029;-85
2022/01/02 07:57:11;;;;;;;40.85;31.63;;;;;;;-144.47;100.00;61586.06;5052875;28;20040;-85
2022/01/02 07:59:36;;;;;;;45.72;33.90;;;;;;;-144.47;100.00;61586.06;5047718;28;20048;-83
2022/01/02 08:02:02;;;;;;;69.10;35.10;;;;;;;-144.47;100.00;61586.06;5044192;28;20144;-82
2022/01/02 08:04:29;;;;;;;42.15;32.53;;;;;;;-144.47;100.00;61586.06;5037991;28;20040;-85
2022/01/02 08:06:54;;;;;;;44.03;32.28;;;;;;;-144.47;100.00;61586.06;5038483;28;20018;-84
2022/01/02 08:09:19;;;;;;;52.40;34.20;;;;;;;-144.47;100.00;61586.06;5036461;28;20064;-84
2022/01/02 08:11:45;;;;;;;62.42;30.65;;;;;;;-144.47;100.00;61586.06;5037238;28;20458;-85
2022/01/02 08:14:11;;;;;;;44.58;32.17;;;;;;;-144.47;100.00;61586.06;5036618;28;20033;-84
2022/01/02 08:16:37;;;;;;;46.97;33.67;;;;;;;-144.47;100.00;61586.06;5018842;28;20025;-84
2022/01/02 08:19:05;;;;;;;60.83;31.35;;;;;;;-144.47;100.00;61586.06;5018039;28;20086;-84
2022/01/02 08:21:31;;;;;;;44.10;31.20;;;;;;;-144.47;100.00;61586.06;5022134;28;20048;-84
2022/01/02 08:23:56;;;;;;;39.10;30.77;;;;;;;-144.47;100.00;61586.06;5021898;28;20057;-85
2022/01/02 08:26:23;;;;;;;43.45;30.98;;;;;;;-144.47;100.00;61586.06;5039507;28;20033;-84
2022/01/02 08:28:49;;;;;;;39.90;29.95;;;;;;;-144.47;100.00;61586.06;5042883;28;20028;-84
2022/01/02 08:31:15;;;;;;;45.95;31.52;;;;;;;-144.47;100.00;61586.06;5036220;28;20041;-85
2022/01/02 08:33:41;;;;;;;42.15;30.83;;;;;;;-144.47;100.00;61586.06;5035834;28;20021;-85
2022/01/02 08:36:06;;;;;;;58.55;31.02;;;;;;;-144.47;100.00;61586.06;5007309;28;20022;-86
2022/01/02 08:38:32;;;;;;;41.13;30.73;;;;;;;-144.47;100.00;61586.06;5034869;28;20375;-85
2022/01/02 08:40:57;;;;;;;40.00;31.27;;;;;;;-144.47;100.00;61586.06;5036443;28;20342;-84
2022/01/02 08:43:23;;;;;;;46.15;32.17;;;;;;;-144.47;100.00;61586.06;5035836;28;20450;-85
2022/01/02 08:45:48;;;;;;;41.47;30.92;;;;;;;-144.47;100.00;61586.06;5018554;28;20099;-85
2022/01/02 08:48:13;;;;;;;45.35;32.30;;;;;;;-144.47;100.00;61586.06;5036750;28;20026;-85
2022/01/02 08:50:39;;;;;;;40.05;29.92;;;;;;;-144.47;100.00;61586.06;5038105;28;20025;-86
2022/01/02 08:53:05;;;;;;;57.30;33.67;;;;;;;-144.47;100.00;61586.06;5037118;28;20060;-85
2022/01/02 08:55:31;;;;;;;39.25;31.50;;;;;;;-144.47;100.00;61586.06;5034851;28;20041;-85
2022/01/02 08:57:56;;;;;;;35.92;29.95;;;;;;;-144.47;100.00;61586.06;5036045;28;20581;-85
2022/01/02 09:00:23;;;;;;;40.15;30.23;;;;;;;-144.47;100.00;61586.06;5017486;28;20037;-84
2022/01/02 09:02:49;;;;;;;51.58;31.23;;;;;;;-144.47;100.00;61586.06;5016492;28;20460;-85
2022/01/02 09:05:16;;;;;;;45.42;32.80;;;;;;;-144.47;100.00;61586.06;5037637;28;20073;-86
2022/01/02 09:07:41;;;;;;;50.50;32.30;;;;;;;-144.47;100.00;61586.06;5016421;28;20108;-84
2022/01/02 09:10:07;;;;;;;50.47;34.03;;;;;;;-144.47;100.00;61586.06;5034615;28;20458;-84
2022/01/02 09:12:32;;;;;;;45.97;31.85;;;;;;;-144.47;100.00;61586.06;5034569;28;20043;-84
2022/01/02 09:14:58;;;;;;;41.85;30.77;;;;;;;-144.47;100.00;61586.06;5017419;28;20442;-85
2022/01/02 09:17:23;;;;;;;50.90;32.03;;;;;;;-144.47;100.00;61586.06;5015995;28;20021;-84
2022/01/02 09:19:51;;;;;;;44.40;32.55;;;;;;;-144.47;100.00;61586.06;5015316;28;20044;-85
2022/01/02 09:22:17;;;;;;;43.50;33.28;;;;;;;-144.47;100.00;61586.06;5033475;28;20025;-85
2022/01/02 09:24:43;;;;;;;46.20;32.90;;;;;;;-144.47;100.00;61586.06;5033559;28;20041;-84
2022/01/02 09:27:08;;;;;;;43.78;32.33;;;;;;;-144.47;100.00;61586.06;5033512;28;20037;-85
2022/01/02 09:29:33;;;;;;;42.55;32.42;;;;;;;-144.47;100.00;61586.06;5033866;28;20124;-85
2022/01/02 09:32:00;;;;;;;48.20;31.25;;;;;;;-144.47;100.00;61586.06;5033155;28;20048;-85
2022/01/02 09:34:25;;;;;;;44.40;32.50;;;;;;;-144.47;100.00;61586.06;5018394;28;20403;-85
2022/01/02 09:36:52;;;;;;;43.63;32.03;;;;;;;-144.47;100.00;61586.06;5034456;28;20037;-84
2022/01/02 09:39:18;;;;;;;46.97;33.35;;;;;;;-144.47;100.00;61586.06;5034072;28;20445;-85
2022/01/02 09:41:43;;;;;;;48.70;34.38;;;;;;;-144.47;100.00;61586.06;5033164;28;20029;-84
2022/01/02 09:44:09;;;;;;;43.28;32.70;;;;;;;-144.47;100.00;61586.06;5032969;28;20045;-83
2022/01/02 09:46:37;;;;;;;43.75;32.10;;;;;;;-144.47;100.00;61586.06;5034519;28;20037;-86
2022/01/02 09:49:03;;;;;;;46.70;32.05;;;;;;;-144.47;100.00;61586.06;5034671;28;20034;-84
2022/01/02 09:51:29;;;;;;;40.58;30.23;;;;;;;-144.47;100.00;61586.06;5017513;28;20102;-84
2022/01/02 09:53:55;;;;;;;41.78;31.60;;;;;;;-144.47;100.00;61586.06;5046547;28;20033;-84
2022/01/02 09:56:23;;;;;;;43.70;32.53;;;;;;;-144.47;100.00;61586.06;5036814;28;20457;-83
2022/01/02 09:58:49;;;;;;;42.85;30.60;;;;;;;-144.47;100.00;61586.06;5041322;28;20032;-84
2022/01/02 10:01:15;;;;;;;46.38;31.88;;;;;;;-144.47;100.00;61586.06;5034636;28;20042;-84
2022/01/02 10:03:43;;;;;;;44.92;30.88;;;;;;;-144.47;100.00;61586.06;5036524;28;20051;-85
2022/01/02 10:06:09;;;;;;;42.25;30.98;;;;;;;-144.47;100.00;61586.06;5042061;28;20060;-84
2022/01/02 10:08:36;;;;;;;58.60;32.33;;;;;;;-144.47;100.00;61586.06;5035458;28;20033;-85
2022/01/02 10:11:10;;;;;;;40.63;31.15;;;;;;;-144.47;100.00;61586.06;5023053;28;20494;-83
2022/01/02 10:13:42;;;;;;;45.72;34.05;;;;;;;-144.47;100.00;61586.06;5036415;28;20042;-84
2022/01/02 10:16:26;;;;;;;44.05;33.38;;;;;;;-144.47;100.00;61586.06;5015886;28;20064;-83
2022/01/02 10:18:53;;;;;;;48.28;34.03;;;;;;;-144.47;100.00;61586.06;5039455;28;20029;-85
2022/01/02 10:21:35;;;;;;;47.10;34.92;;;;;;;-144.47;100.00;61586.06;5039580;28;20053;-85
2022/01/02 10:24:15;;;;;;;45.72;34.35;;;;;;;-144.47;100.00;61586.06;5037947;28;20041;-84
2022/01/02 10:27:02;;;;;;;44.63;33.47;;;;;;;-144.47;100.00;61586.06;5038739;28;20101;-85
2022/01/02 10:29:39;;;;;;;44.53;34.08;;;;;;;-144.47;100.00;61586.06;5039879;28;20034;-85
2022/01/02 10:32:24;;;;;;;45.15;34.15;;;;;;;-144.47;100.00;61586.06;5038946;28;20044;-84
2022/01/02 10:34:51;;;;;;;47.00;33.55;;;;;;;-144.47;100.00;61586.06;5040893;28;20748;-85
2022/01/02 10:37:25;;;;;;;47.90;35.13;;;;;;;-144.47;100.00;61586.06;5036946;28;20033;-86
2022/01/02 10:39:51;;;;;;;50.50;36.45;;;;;;;-144.47;100.00;61586.06;5019209;28;20039;-86
2022/01/02 10:42:19;;;;;;;44.22;35.38;;;;;;;-144.47;100.00;61586.06;5019445;28;20038;-86
2022/01/02 10:44:46;;;;;;;50.10;37.30;;;;;;;-144.47;100.00;61586.06;5047345;28;20030;-84
2022/01/02 10:47:14;;;;;;;47.42;35.20;;;;;;;-144.47;100.00;61586.06;5049678;28;20077;-84
2022/01/02 10:50:03;;;;;;;48.75;36.72;;;;;;;-144.47;100.00;61586.06;5033759;28;20044;-84
2022/01/02 10:52:29;;;;;;;49.88;35.78;;;;;;;-144.47;100.00;61586.06;5055184;28;20030;-85
2022/01/02 10:54:57;;;;;;;48.35;36.40;;;;;;;-144.47;100.00;61586.06;5051987;28;20033;-85
2022/01/02 10:57:23;;;;;;;54.88;36.63;;;;;;;-144.47;100.00;61586.06;5051732;28;20032;-84
2022/01/02 10:59:49;;;;;;;53.03;36.33;;;;;;;-144.47;100.00;61586.06;5051359;28;20077;-85
2022/01/02 11:02:16;;;;;;;55.10;37.97;;;;;;;-144.47;100.00;61586.06;5035573;28;20029;-84
2022/01/02 11:05:06;;;;;;;51.85;36.20;;;;;;;-144.47;100.00;61586.06;5053894;28;20036;-86
2022/01/02 11:07:39;;;;;;;47.53;36.63;;;;;;;-144.47;100.00;61586.06;5051531;28;20045;-85